createdAt,value
2017-10-08T00:02:25.571Z,10.00
2017-10-08T00:04:53.663Z,10.00
2017-10-08T00:07:21.723Z,10.10
2017-10-08T00:09:49.804Z,10.10
2017-10-08T00:12:18.803Z,10.10
2017-10-08T00:14:47.762Z,10.10
2017-10-08T00:17:15.827Z,10.10
2017-10-08T00:19:43.908Z,10.10
2017-10-08T00:22:11.986Z,10.10
2017-10-08T00:24:40.071Z,10.00
2017-10-08T00:27:08.140Z,10.10
2017-10-08T00:29:36.215Z,10.10
2017-10-08T00:32:04.300Z,10.00
2017-10-08T00:34:32.368Z,10.00
2017-10-08T00:37:00.443Z,10.10
2017-10-08T00:39:28.512Z,10.10
2017-10-08T00:41:56.594Z,10.10
2017-10-08T00:44:25.454Z,10.10
2017-10-08T00:46:53.524Z,10.10
2017-10-08T00:49:21.591Z,10.10
2017-10-08T00:51:49.666Z,11.50
2017-10-08T00:54:17.748Z,10.10
2017-10-08T00:56:45.828Z,10.10
2017-10-08T00:59:13.911Z,10.10
2017-10-08T01:01:41.983Z,10.10
2017-10-08T01:04:10.064Z,10.10
2017-10-08T01:06:38.923Z,10.10
2017-10-08T01:09:06.990Z,10.10
2017-10-08T01:11:35.069Z,10.10
2017-10-08T01:14:03.139Z,10.10
2017-10-08T01:16:31.207Z,10.10
2017-10-08T01:18:59.279Z,10.10
2017-10-08T01:21:27.350Z,10.10
2017-10-08T01:23:55.427Z,10.10
2017-10-08T01:26:23.498Z,10.00
2017-10-08T01:28:51.570Z,10.00
2017-10-08T01:31:19.644Z,10.00
2017-10-08T01:33:47.730Z,10.00
2017-10-08T01:36:15.807Z,10.00
2017-10-08T01:38:43.893Z,10.00
2017-10-08T01:41:11.955Z,10.00
2017-10-08T01:43:40.042Z,10.00
2017-10-08T01:46:08.115Z,10.10
2017-10-08T01:48:36.951Z,10.10
2017-10-08T01:51:05.796Z,10.10
2017-10-08T01:53:34.647Z,10.10
2017-10-08T01:56:02.724Z,10.10
2017-10-08T01:58:30.799Z,10.00
2017-10-08T02:00:58.888Z,10.10
2017-10-08T02:03:26.959Z,10.10
2017-10-08T02:05:55.039Z,10.10
2017-10-08T02:08:23.116Z,10.10
2017-10-08T02:10:51.191Z,10.10
2017-10-08T02:13:19.287Z,10.10
2017-10-08T02:15:48.124Z,10.10
2017-10-08T02:18:16.194Z,10.10
2017-10-08T02:20:44.277Z,10.10
2017-10-08T02:23:12.338Z,10.10
2017-10-08T02:25:41.353Z,10.10
2017-10-08T02:28:09.423Z,10.10
2017-10-08T02:30:37.517Z,10.10
2017-10-08T02:33:06.360Z,10.10
2017-10-08T02:35:34.424Z,10.10
2017-10-08T02:38:02.512Z,10.10
2017-10-08T02:40:30.587Z,10.10
2017-10-08T02:42:58.680Z,10.20
2017-10-08T02:45:26.748Z,10.20
2017-10-08T02:47:54.832Z,10.10
2017-10-08T02:50:22.903Z,10.10
2017-10-08T02:52:50.980Z,10.10
2017-10-08T02:55:19.052Z,10.10
2017-10-08T02:57:47.127Z,10.10
2017-10-08T03:00:15.204Z,10.20
2017-10-08T03:02:44.062Z,10.10
2017-10-08T03:05:12.135Z,10.10
2017-10-08T03:07:40.220Z,10.10
2017-10-08T03:10:08.291Z,10.20
2017-10-08T03:12:37.383Z,10.20
2017-10-08T03:15:05.577Z,10.20
2017-10-08T03:17:33.648Z,10.20
2017-10-08T03:20:01.723Z,10.20
2017-10-08T03:22:29.795Z,10.10
2017-10-08T03:24:57.871Z,10.10
2017-10-08T03:27:26.706Z,10.20
2017-10-08T03:29:54.791Z,10.20
2017-10-08T03:32:22.864Z,10.20
2017-10-08T03:34:50.943Z,10.20
2017-10-08T03:37:19.011Z,10.20
2017-10-08T03:39:47.088Z,10.20
2017-10-08T03:42:16.251Z,10.20
2017-10-08T03:44:44.420Z,10.20
2017-10-08T03:47:12.486Z,10.20
2017-10-08T03:49:41.331Z,10.20
2017-10-08T03:52:09.398Z,10.20
2017-10-08T03:54:37.487Z,10.30
2017-10-08T03:57:05.579Z,10.30
2017-10-08T03:59:34.415Z,10.30
2017-10-08T04:02:03.262Z,10.30
2017-10-08T04:04:32.107Z,10.30
2017-10-08T04:07:00.188Z,10.30
2017-10-08T04:09:28.259Z,10.30
2017-10-08T04:11:56.335Z,10.30
2017-10-08T04:14:24.403Z,10.40
2017-10-08T04:16:52.479Z,10.40
2017-10-08T04:19:20.553Z,10.40
2017-10-08T04:21:48.639Z,10.40
2017-10-08T04:24:16.711Z,10.40
2017-10-08T04:26:44.795Z,10.30
2017-10-08T04:29:12.867Z,10.30
2017-10-08T04:31:40.975Z,10.30
2017-10-08T04:34:09.063Z,10.50
2017-10-08T04:36:37.134Z,10.50
2017-10-08T04:39:05.210Z,10.40
2017-10-08T04:41:33.283Z,10.40
2017-10-08T04:44:01.356Z,10.30
2017-10-08T04:46:29.427Z,10.30
2017-10-08T04:48:57.547Z,10.30
2017-10-08T04:51:25.627Z,10.30
2017-10-08T04:53:53.699Z,10.30
2017-10-08T04:56:21.767Z,10.30
2017-10-08T04:58:49.839Z,10.30
2017-10-08T05:01:17.913Z,10.30
2017-10-08T05:03:45.992Z,10.40
2017-10-08T05:06:14.822Z,10.30
2017-10-08T05:08:43.667Z,10.30
2017-10-08T05:11:11.743Z,10.30
2017-10-08T05:13:40.580Z,10.40
2017-10-08T05:16:08.652Z,10.30
2017-10-08T05:18:37.479Z,10.40
2017-10-08T05:21:05.564Z,10.40
2017-10-08T05:23:33.627Z,10.40
2017-10-08T05:26:01.707Z,10.40
2017-10-08T05:28:29.771Z,10.40
2017-10-08T05:30:57.851Z,10.40
2017-10-08T05:33:25.924Z,10.40
2017-10-08T05:35:53.994Z,10.40
2017-10-08T05:38:22.060Z,10.40
2017-10-08T05:40:50.152Z,10.40
2017-10-08T05:43:18.987Z,10.50
2017-10-08T05:45:47.054Z,10.50
2017-10-08T05:48:15.912Z,10.50
2017-10-08T05:50:44.744Z,10.50
2017-10-08T05:53:12.831Z,10.50
2017-10-08T05:55:40.899Z,10.50
2017-10-08T05:58:08.971Z,10.50
2017-10-08T06:00:37.044Z,10.50
2017-10-08T06:03:05.119Z,10.50
2017-10-08T06:05:33.191Z,10.50
2017-10-08T06:08:01.274Z,10.50
2017-10-08T06:10:29.339Z,10.50
2017-10-08T06:12:57.411Z,10.50
2017-10-08T06:15:26.403Z,10.60
2017-10-08T06:17:54.475Z,10.60
2017-10-08T06:20:22.546Z,10.60
2017-10-08T06:22:50.632Z,10.50
2017-10-08T06:25:18.700Z,10.60
2017-10-08T06:27:46.854Z,10.60
2017-10-08T06:30:14.991Z,10.60
2017-10-08T06:32:43.836Z,10.60
2017-10-08T06:35:11.903Z,10.60
2017-10-08T06:37:39.988Z,10.60
2017-10-08T06:40:08.060Z,10.60
2017-10-08T06:42:37.392Z,10.70
2017-10-08T06:45:06.348Z,10.70
2017-10-08T06:47:34.438Z,10.70
2017-10-08T06:50:02.513Z,10.70
2017-10-08T06:52:31.647Z,10.80
2017-10-08T06:54:59.838Z,10.80
2017-10-08T06:57:28.683Z,10.90
2017-10-08T06:59:56.752Z,10.80
2017-10-08T07:02:24.827Z,10.90
2017-10-08T07:04:52.889Z,10.90
2017-10-08T07:07:20.969Z,11.00
2017-10-08T07:09:49.035Z,11.00
2017-10-08T07:12:19.237Z,11.10
2017-10-08T07:14:47.428Z,11.10
2017-10-08T07:17:15.503Z,11.20
2017-10-08T07:19:43.572Z,11.30
2017-10-08T07:22:11.648Z,11.40
2017-10-08T07:24:39.715Z,11.40
2017-10-08T07:27:07.799Z,11.40
2017-10-08T07:29:35.867Z,11.40
2017-10-08T07:32:03.947Z,11.50
2017-10-08T07:34:32.020Z,11.50
2017-10-08T07:37:00.094Z,11.60
2017-10-08T07:39:28.163Z,11.70
2017-10-08T07:41:56.236Z,11.70
2017-10-08T07:44:24.309Z,11.80
2017-10-08T07:46:52.387Z,11.80
2017-10-08T07:49:20.459Z,11.80
2017-10-08T07:51:49.324Z,11.90
2017-10-08T07:54:17.400Z,11.90
2017-10-08T07:56:45.476Z,12.00
2017-10-08T07:59:13.551Z,11.90
2017-10-08T08:01:41.636Z,12.00
2017-10-08T08:04:09.706Z,12.00
2017-10-08T08:06:37.784Z,12.00
2017-10-08T08:09:06.628Z,12.00
2017-10-08T08:11:34.708Z,12.00
2017-10-08T08:14:02.860Z,12.10
2017-10-08T08:16:30.939Z,12.10
2017-10-08T08:18:59.403Z,12.10
2017-10-08T08:21:27.606Z,12.20
2017-10-08T08:23:55.696Z,12.30
2017-10-08T08:26:23.972Z,12.30
2017-10-08T08:28:52.059Z,12.30
2017-10-08T08:31:20.132Z,12.20
2017-10-08T08:33:48.231Z,12.20
2017-10-08T08:36:17.071Z,12.30
2017-10-08T08:38:45.152Z,12.30
2017-10-08T08:41:13.232Z,12.40
2017-10-08T08:43:41.328Z,12.30
2017-10-08T08:46:09.395Z,12.30
2017-10-08T08:48:37.483Z,12.30
2017-10-08T08:51:06.337Z,12.40
2017-10-08T08:53:34.428Z,12.40
2017-10-08T08:56:02.503Z,12.50
2017-10-08T08:58:30.583Z,12.50
2017-10-08T09:00:59.421Z,12.70
2017-10-08T09:03:27.507Z,12.70
2017-10-08T09:05:55.585Z,12.70
2017-10-08T09:08:23.656Z,12.70
2017-10-08T09:10:51.768Z,12.60
2017-10-08T09:13:20.620Z,12.70
2017-10-08T09:15:48.700Z,12.70
2017-10-08T09:18:16.823Z,12.80
2017-10-08T09:20:44.900Z,12.80
2017-10-08T09:23:12.971Z,12.80
2017-10-08T09:25:41.034Z,12.90
2017-10-08T09:28:09.924Z,13.00
2017-10-08T09:30:38.775Z,13.10
2017-10-08T09:33:06.856Z,13.10
2017-10-08T09:35:35.004Z,13.20
2017-10-08T09:38:03.097Z,13.30
2017-10-08T09:40:31.170Z,13.40
2017-10-08T09:42:59.264Z,13.30
2017-10-08T09:45:27.337Z,13.30
2017-10-08T09:47:55.419Z,13.30
2017-10-08T09:50:24.267Z,13.40
2017-10-08T09:52:52.376Z,13.40
2017-10-08T09:55:21.226Z,13.40
2017-10-08T09:57:49.333Z,13.40
2017-10-08T10:00:17.419Z,13.50
2017-10-08T10:02:46.276Z,13.70
2017-10-08T10:05:14.357Z,13.70
2017-10-08T10:07:42.448Z,13.70
2017-10-08T10:10:11.308Z,13.80
2017-10-08T10:12:39.716Z,13.80
2017-10-08T10:15:10.946Z,13.60
2017-10-08T10:17:39.931Z,13.70
2017-10-08T10:20:07.998Z,13.70
2017-10-08T10:22:36.072Z,13.80
2017-10-08T10:25:05.475Z,13.80
2017-10-08T10:27:33.564Z,13.80
2017-10-08T10:30:02.943Z,13.70
2017-10-08T10:32:31.022Z,13.70
2017-10-08T10:34:59.104Z,13.80
2017-10-08T10:37:27.232Z,13.80
2017-10-08T10:39:55.311Z,13.80
2017-10-08T10:42:23.399Z,13.80
2017-10-08T10:44:51.467Z,13.90
2017-10-08T10:47:19.547Z,14.10
2017-10-08T10:49:47.608Z,14.20
2017-10-08T10:52:15.683Z,14.30
2017-10-08T10:54:44.528Z,14.50
2017-10-08T10:57:12.652Z,14.40
2017-10-08T10:59:40.740Z,14.50
2017-10-08T11:02:08.820Z,14.60
2017-10-08T11:04:36.981Z,14.70
2017-10-08T11:07:05.050Z,14.80
2017-10-08T11:09:33.956Z,14.60
2017-10-08T11:12:02.029Z,14.60
2017-10-08T11:14:30.127Z,14.60
2017-10-08T11:16:58.187Z,14.70
2017-10-08T11:19:26.293Z,14.90
2017-10-08T11:21:55.523Z,14.60
2017-10-08T11:24:23.697Z,14.60
2017-10-08T11:26:51.779Z,14.60
2017-10-08T11:29:19.880Z,14.50
2017-10-08T11:31:47.956Z,14.50
2017-10-08T11:34:16.048Z,14.50
2017-10-08T11:36:44.909Z,14.40
2017-10-08T11:39:12.987Z,14.40
2017-10-08T11:41:41.059Z,14.30
2017-10-08T11:44:09.144Z,14.30
2017-10-08T11:46:37.217Z,14.30
2017-10-08T11:49:05.312Z,14.30
2017-10-08T11:51:34.154Z,14.30
2017-10-08T11:54:02.229Z,14.30
2017-10-08T11:56:30.335Z,14.30
2017-10-08T11:58:59.207Z,14.40
2017-10-08T12:01:27.311Z,14.40
2017-10-08T12:03:56.155Z,14.20
2017-10-08T12:06:24.245Z,14.20
2017-10-08T12:08:52.311Z,14.20
2017-10-08T12:11:20.408Z,14.00
2017-10-08T12:13:49.250Z,14.00
2017-10-08T12:16:17.330Z,14.00
2017-10-08T12:18:45.408Z,14.00
2017-10-08T12:21:13.500Z,14.00
2017-10-08T12:23:41.602Z,14.10
2017-10-08T12:26:10.459Z,14.10
2017-10-08T12:28:38.540Z,14.10
2017-10-08T12:31:06.610Z,14.20
2017-10-08T12:33:34.688Z,14.30
2017-10-08T12:36:02.995Z,14.30
2017-10-08T12:38:31.080Z,14.30
2017-10-08T12:40:59.152Z,14.40
2017-10-08T12:43:27.233Z,14.50
2017-10-08T12:45:55.309Z,14.60
2017-10-08T12:48:23.392Z,14.70
2017-10-08T12:50:52.228Z,14.60
2017-10-08T12:53:21.087Z,14.50
2017-10-08T12:55:49.186Z,14.50
2017-10-08T12:58:17.251Z,14.50
2017-10-08T13:00:45.315Z,14.20
2017-10-08T13:03:14.352Z,14.10
2017-10-08T13:05:42.423Z,14.10
2017-10-08T13:08:10.508Z,14.10
2017-10-08T13:10:38.589Z,14.10
2017-10-08T13:13:06.668Z,14.20
2017-10-08T13:15:34.730Z,14.20
2017-10-08T13:18:04.501Z,14.20
2017-10-08T13:20:32.559Z,14.20
2017-10-08T13:23:00.652Z,14.20
2017-10-08T13:25:29.495Z,14.30
2017-10-08T13:27:57.579Z,14.30
2017-10-08T13:30:25.713Z,14.20
2017-10-08T13:32:53.924Z,14.20
2017-10-08T13:35:22.004Z,14.10
2017-10-08T13:37:50.071Z,14.20
2017-10-08T13:40:18.143Z,14.30
2017-10-08T13:42:46.215Z,14.30
2017-10-08T13:45:14.303Z,14.20
2017-10-08T13:47:42.375Z,14.20
2017-10-08T13:50:10.472Z,14.20
2017-10-08T13:52:39.316Z,14.10
2017-10-08T13:55:07.390Z,14.10
2017-10-08T13:57:35.467Z,14.10
2017-10-08T14:00:03.556Z,14.10
2017-10-08T14:02:31.632Z,14.10
2017-10-08T14:04:59.731Z,14.00
2017-10-08T14:07:28.568Z,14.00
2017-10-08T14:09:58.304Z,14.00
2017-10-08T14:12:27.289Z,14.00
2017-10-08T14:14:56.352Z,14.00
2017-10-08T14:17:25.195Z,13.90
2017-10-08T14:19:53.270Z,13.80
2017-10-08T14:22:21.347Z,13.70
2017-10-08T14:24:50.193Z,13.80
2017-10-08T14:27:18.281Z,13.80
2017-10-08T14:29:46.426Z,13.80
2017-10-08T14:32:14.500Z,13.80
2017-10-08T14:34:42.577Z,13.90
2017-10-08T14:37:10.677Z,14.10
2017-10-08T14:39:38.760Z,14.20
2017-10-08T14:42:06.852Z,14.20
2017-10-08T14:44:35.695Z,14.00
2017-10-08T14:47:03.772Z,14.00
2017-10-08T14:49:31.857Z,14.00
2017-10-08T14:51:59.947Z,14.10
2017-10-08T14:54:28.019Z,14.10
2017-10-08T14:56:56.095Z,14.20
2017-10-08T14:59:24.168Z,14.20
2017-10-08T15:01:52.240Z,14.20
2017-10-08T15:04:20.318Z,14.20
2017-10-08T15:06:48.384Z,14.10
2017-10-08T15:09:16.467Z,14.20
2017-10-08T15:11:45.327Z,14.10
2017-10-08T15:14:13.425Z,14.00
2017-10-08T15:16:41.490Z,14.00
2017-10-08T15:19:09.566Z,14.10
2017-10-08T15:21:37.640Z,14.20
2017-10-08T15:24:05.724Z,14.30
2017-10-08T15:26:34.566Z,14.10
2017-10-08T15:29:02.664Z,14.10
2017-10-08T15:31:30.740Z,14.00
2017-10-08T15:33:58.819Z,14.00
2017-10-08T15:36:27.130Z,14.00
2017-10-08T15:38:55.216Z,13.90
2017-10-08T15:41:24.136Z,13.20
2017-10-08T15:43:52.204Z,13.20
2017-10-08T15:46:20.287Z,12.50
2017-10-08T15:48:48.360Z,12.40
2017-10-08T15:51:16.439Z,12.40
2017-10-08T15:53:44.513Z,12.40
2017-10-08T15:56:12.603Z,12.30
2017-10-08T15:58:41.453Z,12.40
2017-10-08T16:01:09.540Z,12.40
2017-10-08T16:03:37.620Z,12.40
2017-10-08T16:06:05.751Z,12.30
2017-10-08T16:08:33.959Z,12.40
2017-10-08T16:11:02.053Z,12.40
2017-10-08T16:13:30.919Z,12.50
2017-10-08T16:15:59.015Z,12.40
2017-10-08T16:18:27.140Z,12.40
2017-10-08T16:20:55.212Z,12.40
2017-10-08T16:23:23.295Z,12.40
2017-10-08T16:25:51.391Z,12.40
2017-10-08T16:28:19.469Z,12.40
2017-10-08T16:30:47.544Z,12.30
2017-10-08T16:33:15.635Z,12.30
2017-10-08T16:35:44.486Z,12.30
2017-10-08T16:38:12.584Z,12.30
2017-10-08T16:40:40.664Z,12.30
2017-10-08T16:43:08.758Z,12.30
2017-10-08T16:45:37.613Z,12.40
2017-10-08T16:48:05.691Z,12.40
2017-10-08T16:50:33.840Z,12.40
2017-10-08T16:53:02.729Z,12.40
2017-10-08T16:55:30.816Z,12.40
2017-10-08T16:57:58.916Z,12.40
2017-10-08T17:00:27.012Z,12.40
2017-10-08T17:02:55.846Z,12.40
2017-10-08T17:05:23.940Z,12.40
2017-10-08T17:07:52.011Z,12.50
2017-10-08T17:10:20.094Z,12.50
2017-10-08T17:12:48.171Z,12.50
2017-10-08T17:15:17.040Z,12.50
2017-10-08T17:17:45.152Z,12.50
2017-10-08T17:20:14.000Z,12.40
2017-10-08T17:22:42.082Z,12.40
2017-10-08T17:25:10.167Z,12.30
2017-10-08T17:27:38.242Z,12.40
2017-10-08T17:30:06.320Z,12.30
2017-10-08T17:32:35.162Z,12.30
2017-10-08T17:35:03.244Z,12.30
2017-10-08T17:37:31.330Z,12.30
2017-10-08T17:39:59.423Z,12.30
2017-10-08T17:42:28.280Z,12.20
2017-10-08T17:44:56.383Z,12.20
2017-10-08T17:47:24.520Z,12.20
2017-10-08T17:49:52.605Z,12.20
2017-10-08T17:52:20.696Z,12.20
2017-10-08T17:54:48.778Z,12.20
2017-10-08T17:57:16.883Z,12.10
2017-10-08T17:59:44.965Z,12.10
2017-10-08T18:02:13.807Z,12.10
2017-10-08T18:04:41.896Z,12.10
2017-10-08T18:07:10.775Z,12.10
2017-10-08T18:09:38.865Z,12.10
2017-10-08T18:12:08.005Z,12.10
2017-10-08T18:14:36.203Z,12.10
2017-10-08T18:17:04.293Z,12.10
2017-10-08T18:19:32.373Z,12.10
2017-10-08T18:22:01.221Z,12.00
2017-10-08T18:24:29.311Z,12.00
2017-10-08T18:26:57.388Z,12.00
2017-10-08T18:29:25.497Z,12.10
2017-10-08T18:31:54.335Z,12.10
2017-10-08T18:34:22.448Z,12.10
2017-10-08T18:36:51.299Z,12.10
2017-10-08T18:39:19.388Z,12.10
2017-10-08T18:41:47.464Z,12.10
2017-10-08T18:44:15.564Z,12.20
2017-10-08T18:46:44.405Z,12.00
2017-10-08T18:49:12.478Z,12.00
2017-10-08T18:51:40.563Z,12.00
2017-10-08T18:54:08.643Z,11.90
2017-10-08T18:56:38.530Z,11.90
2017-10-08T18:59:06.605Z,12.00
2017-10-08T19:01:34.697Z,12.00
2017-10-08T19:04:02.786Z,12.00
2017-10-08T19:06:31.652Z,12.00
2017-10-08T19:08:59.723Z,12.00
2017-10-08T19:11:27.800Z,12.00
2017-10-08T19:13:55.871Z,12.00
2017-10-08T19:16:23.955Z,12.00
2017-10-08T19:18:52.040Z,12.00
2017-10-08T19:21:20.133Z,12.00
2017-10-08T19:23:48.973Z,11.90
2017-10-08T19:26:17.059Z,11.90
2017-10-08T19:28:45.131Z,11.90
2017-10-08T19:31:13.211Z,11.90
2017-10-08T19:33:41.288Z,11.90
2017-10-08T19:36:09.362Z,11.90
2017-10-08T19:38:37.435Z,11.90
2017-10-08T19:41:05.520Z,11.90
2017-10-08T19:43:34.360Z,11.90
2017-10-08T19:46:02.441Z,11.90
2017-10-08T19:48:30.524Z,11.90
2017-10-08T19:50:58.598Z,11.90
2017-10-08T19:53:26.677Z,11.80
2017-10-08T19:55:54.758Z,11.80
2017-10-08T19:58:23.604Z,11.80
2017-10-08T20:00:51.696Z,11.80
2017-10-08T20:03:19.768Z,11.70
2017-10-08T20:05:47.845Z,11.80
2017-10-08T20:08:15.921Z,11.80
2017-10-08T20:10:44.000Z,11.80
2017-10-08T20:13:12.072Z,11.80
2017-10-08T20:15:40.151Z,11.80
2017-10-08T20:18:08.227Z,11.80
2017-10-08T20:20:36.311Z,11.80
2017-10-08T20:23:05.147Z,11.80
2017-10-08T20:25:33.235Z,11.80
2017-10-08T20:28:01.312Z,11.70
2017-10-08T20:30:29.396Z,11.70
2017-10-08T20:32:57.483Z,11.70
2017-10-08T20:35:25.571Z,11.60
2017-10-08T20:37:54.461Z,11.50
2017-10-08T20:40:23.317Z,11.50
2017-10-08T20:42:51.398Z,11.50
2017-10-08T20:45:19.484Z,11.60
2017-10-08T20:47:47.555Z,11.60
2017-10-08T20:50:15.628Z,11.60
2017-10-08T20:52:43.699Z,11.60
2017-10-08T20:55:11.785Z,11.60
2017-10-08T20:57:40.632Z,11.50
2017-10-08T21:00:08.721Z,11.50
2017-10-08T21:02:36.807Z,11.60
2017-10-08T21:05:04.904Z,11.60
2017-10-08T21:07:33.745Z,11.50
2017-10-08T21:10:01.832Z,11.50
2017-10-08T21:12:29.920Z,11.50
2017-10-08T21:14:58.012Z,11.40
2017-10-08T21:17:26.850Z,11.30
2017-10-08T21:19:54.929Z,11.20
2017-10-08T21:22:23.024Z,11.20
2017-10-08T21:24:51.089Z,11.20
2017-10-08T21:27:19.170Z,11.10
2017-10-08T21:29:47.239Z,11.00
2017-10-08T21:32:15.324Z,11.00
2017-10-08T21:34:44.168Z,10.90
2017-10-08T21:37:12.248Z,10.90
2017-10-08T21:39:40.327Z,10.90
2017-10-08T21:42:08.416Z,10.90
2017-10-08T21:44:36.515Z,10.90
2017-10-08T21:47:05.359Z,10.80
2017-10-08T21:49:33.431Z,10.80
2017-10-08T21:52:01.521Z,10.80
2017-10-08T21:54:29.591Z,10.80
2017-10-08T21:56:57.686Z,10.80
2017-10-08T21:59:26.527Z,10.90
2017-10-08T22:01:54.667Z,10.90
2017-10-08T22:04:23.503Z,10.80
2017-10-08T22:06:51.587Z,10.70
2017-10-08T22:09:19.734Z,10.80
2017-10-08T22:11:48.583Z,10.80
2017-10-08T22:14:17.423Z,10.80
2017-10-08T22:16:45.508Z,10.70
2017-10-08T22:19:13.583Z,10.80
2017-10-08T22:21:41.706Z,10.80
2017-10-08T22:24:09.794Z,10.80
2017-10-08T22:26:37.888Z,10.70
2017-10-08T22:29:05.972Z,10.70
2017-10-08T22:31:34.059Z,10.70
2017-10-08T22:34:02.175Z,10.70
2017-10-08T22:36:30.279Z,10.60
2017-10-08T22:38:58.350Z,10.40
2017-10-08T22:41:26.436Z,10.40
2017-10-08T22:43:54.512Z,10.40
2017-10-08T22:46:22.604Z,10.40
2017-10-08T22:48:50.895Z,10.40
2017-10-08T22:51:19.752Z,10.50
2017-10-08T22:53:47.842Z,10.50
2017-10-08T22:56:15.924Z,10.50
2017-10-08T22:58:44.003Z,10.50
2017-10-08T23:01:12.856Z,10.30
2017-10-08T23:03:40.947Z,10.30
2017-10-08T23:06:09.043Z,10.30
2017-10-08T23:08:37.879Z,10.30
2017-10-08T23:11:06.731Z,10.30
2017-10-08T23:13:35.577Z,10.30
2017-10-08T23:16:03.670Z,10.30
2017-10-08T23:18:31.744Z,10.30
2017-10-08T23:20:59.828Z,10.20
2017-10-08T23:23:28.663Z,10.00
2017-10-08T23:25:56.756Z,10.00
2017-10-08T23:28:24.831Z,10.00
2017-10-08T23:30:52.927Z,10.00
2017-10-08T23:33:21.003Z,10.00
2017-10-08T23:35:49.087Z,10.00
2017-10-08T23:38:17.940Z,10.10
2017-10-08T23:40:46.039Z,10.00
2017-10-08T23:43:14.118Z,10.10
2017-10-08T23:45:42.970Z,10.00
2017-10-08T23:48:11.059Z,10.00
2017-10-08T23:50:39.155Z,9.90
2017-10-08T23:53:07.996Z,9.70
2017-10-08T23:55:36.067Z,9.70
2017-10-08T23:58:04.156Z,9.60
